createdAt,value
2023-05-05T00:01:26.901Z,86.00
2023-05-05T00:03:54.006Z,86.10
2023-05-05T00:06:20.864Z,86.40
2023-05-05T00:08:47.641Z,86.10
2023-05-05T00:11:14.428Z,86.20
2023-05-05T00:13:41.697Z,86.50
2023-05-05T00:16:08.750Z,86.60
2023-05-05T00:18:35.568Z,85.30
2023-05-05T00:21:02.481Z,86.20
2023-05-05T00:23:29.369Z,85.90
2023-05-05T00:25:56.128Z,86.40
2023-05-05T00:28:23.251Z,86.60
2023-05-05T00:30:50.434Z,86.60
2023-05-05T00:33:17.246Z,86.10
2023-05-05T00:35:44.133Z,86.10
2023-05-05T00:38:10.892Z,86.90
2023-05-05T00:40:38.194Z,86.90
2023-05-05T00:43:05.476Z,86.00
2023-05-05T00:45:32.308Z,86.20
2023-05-05T00:48:00.159Z,87.00
2023-05-05T00:50:28.698Z,87.90
2023-05-05T00:53:06.747Z,87.80
2023-05-05T00:55:34.800Z,88.60
2023-05-05T00:58:03.225Z,88.40
2023-05-05T01:00:30.654Z,88.20
2023-05-05T01:02:57.803Z,88.00
2023-05-05T01:05:26.994Z,87.60
2023-05-05T01:08:03.008Z,87.40
2023-05-05T01:10:38.222Z,87.80
2023-05-05T01:13:07.937Z,87.70
2023-05-05T01:15:39.247Z,87.70
2023-05-05T01:18:11.612Z,86.90
2023-05-05T01:20:51.688Z,86.80
2023-05-05T01:23:41.500Z,87.10
2023-05-05T01:26:46.145Z,87.10
2023-05-05T01:29:46.428Z,87.30
2023-05-05T01:32:15.512Z,86.10
2023-05-05T01:34:50.588Z,87.00
2023-05-05T01:37:24.825Z,86.60
2023-05-05T01:40:03.800Z,85.60
2023-05-05T01:42:32.535Z,86.90
2023-05-05T01:45:01.275Z,87.30
2023-05-05T01:47:28.970Z,86.60
2023-05-05T01:49:55.759Z,87.40
2023-05-05T01:52:24.055Z,87.30
2023-05-05T01:54:52.552Z,87.60
2023-05-05T01:57:21.526Z,88.00
2023-05-05T01:59:51.194Z,88.20
2023-05-05T02:02:21.222Z,88.20
2023-05-05T02:04:51.095Z,87.80
2023-05-05T02:07:19.484Z,87.90
2023-05-05T02:09:47.108Z,87.80
2023-05-05T02:12:15.315Z,87.40
2023-05-05T02:14:44.034Z,87.30
2023-05-05T02:17:12.099Z,87.10
2023-05-05T02:19:41.742Z,86.40
2023-05-05T02:22:08.880Z,86.40
2023-05-05T02:24:35.856Z,86.70
2023-05-05T02:27:06.029Z,87.10
2023-05-05T02:29:46.827Z,87.30
2023-05-05T02:32:34.125Z,86.20
2023-05-05T02:35:21.141Z,87.10
2023-05-05T02:37:55.563Z,88.00
2023-05-05T02:40:28.524Z,88.40
2023-05-05T02:42:58.183Z,88.60
2023-05-05T02:45:26.668Z,88.70
2023-05-05T02:47:53.849Z,89.10
2023-05-05T02:50:20.930Z,88.80
2023-05-05T02:52:48.174Z,89.10
2023-05-05T02:55:15.579Z,88.70
2023-05-05T02:58:06.632Z,88.10
2023-05-05T03:00:39.486Z,88.50
2023-05-05T03:03:36.734Z,88.30
2023-05-05T03:06:32.071Z,87.50
2023-05-05T03:09:34.579Z,87.70
2023-05-05T03:12:04.292Z,87.90
2023-05-05T03:14:41.498Z,87.90
2023-05-05T03:17:12.394Z,87.90
2023-05-05T03:19:44.149Z,87.10
2023-05-05T03:22:11.371Z,87.20
2023-05-05T03:24:38.500Z,87.70
2023-05-05T03:27:05.365Z,88.50
2023-05-05T03:29:32.195Z,88.60
2023-05-05T03:32:01.453Z,88.00
2023-05-05T03:34:28.530Z,88.50
2023-05-05T03:36:55.418Z,88.40
2023-05-05T03:39:22.199Z,88.80
2023-05-05T03:41:49.166Z,89.60
2023-05-05T03:44:15.985Z,89.50
2023-05-05T03:46:42.737Z,89.30
2023-05-05T03:49:09.810Z,89.30
2023-05-05T03:51:37.205Z,89.30
2023-05-05T03:54:04.042Z,89.50
2023-05-05T03:56:30.831Z,90.30
2023-05-05T03:58:57.581Z,89.90
2023-05-05T04:01:24.417Z,89.00
2023-05-05T04:03:51.251Z,89.30
2023-05-05T04:06:18.071Z,89.70
2023-05-05T04:08:44.840Z,89.80
2023-05-05T04:11:11.602Z,89.80
2023-05-05T04:13:38.566Z,88.80
2023-05-05T04:16:05.513Z,89.00
2023-05-05T04:18:32.403Z,89.90
2023-05-05T04:20:59.446Z,89.90
2023-05-05T04:23:26.204Z,89.70
2023-05-05T04:25:52.953Z,89.10
2023-05-05T04:28:21.779Z,89.10
2023-05-05T04:30:48.977Z,88.40
2023-05-05T04:33:15.768Z,88.60
2023-05-05T04:35:42.519Z,88.90
2023-05-05T04:38:09.257Z,88.70
2023-05-05T04:40:40.255Z,88.30
2023-05-05T04:43:07.451Z,88.40
2023-05-05T04:45:34.271Z,88.40
2023-05-05T04:48:01.679Z,88.70
2023-05-05T04:50:29.091Z,89.00
2023-05-05T04:52:56.269Z,88.50
2023-05-05T04:55:23.093Z,87.90
2023-05-05T04:57:50.301Z,87.80
2023-05-05T05:00:17.669Z,88.30
2023-05-05T05:02:44.521Z,89.40
2023-05-05T05:05:11.475Z,89.90
2023-05-05T05:07:38.304Z,90.10
2023-05-05T05:10:06.159Z,89.80
2023-05-05T05:12:33.407Z,89.70
2023-05-05T05:15:00.295Z,89.60
2023-05-05T05:17:27.182Z,89.20
2023-05-05T05:19:55.264Z,89.50
2023-05-05T05:22:22.183Z,89.40
2023-05-05T05:24:49.056Z,88.90
2023-05-05T05:27:15.954Z,89.90
2023-05-05T05:29:43.519Z,89.60
2023-05-05T05:32:10.430Z,89.20
2023-05-05T05:34:37.198Z,89.10
2023-05-05T05:37:04.112Z,89.30
2023-05-05T05:39:30.850Z,88.80
2023-05-05T05:41:58.064Z,88.70
2023-05-05T05:44:24.807Z,87.70
2023-05-05T05:46:51.582Z,88.00
2023-05-05T05:49:18.375Z,87.20
2023-05-05T05:51:45.168Z,86.80
2023-05-05T05:54:11.980Z,86.80
2023-05-05T05:56:38.738Z,86.70
2023-05-05T05:59:08.055Z,87.30
2023-05-05T06:01:35.478Z,87.50
2023-05-05T06:04:02.458Z,87.80
2023-05-05T06:06:29.342Z,87.00
2023-05-05T06:08:56.481Z,86.30
2023-05-05T06:11:23.317Z,85.80
2023-05-05T06:13:50.582Z,84.90
2023-05-05T06:16:17.395Z,84.90
2023-05-05T06:18:44.235Z,84.30
2023-05-05T06:21:11.218Z,83.70
2023-05-05T06:23:38.116Z,83.30
2023-05-05T06:26:04.879Z,83.10
2023-05-05T06:28:31.702Z,82.50
2023-05-05T06:30:58.485Z,83.00
2023-05-05T06:33:25.276Z,83.60
2023-05-05T06:35:52.436Z,84.90
2023-05-05T06:38:19.954Z,84.70
2023-05-05T06:40:50.014Z,84.80
2023-05-05T06:43:17.490Z,84.70
2023-05-05T06:45:44.568Z,83.90
2023-05-05T06:48:12.494Z,81.80
2023-05-05T06:50:39.515Z,81.40
2023-05-05T06:53:07.423Z,80.90
2023-05-05T06:55:34.184Z,80.60
2023-05-05T06:58:00.963Z,80.20
2023-05-05T07:00:27.725Z,79.70
2023-05-05T07:02:54.528Z,79.10
2023-05-05T07:05:21.466Z,80.30
2023-05-05T07:07:56.050Z,79.40
2023-05-05T07:10:23.851Z,80.80
2023-05-05T07:12:51.910Z,77.20
2023-05-05T07:15:28.124Z,78.10
2023-05-05T07:17:56.737Z,75.90
2023-05-05T07:20:25.224Z,77.00
2023-05-05T07:22:53.439Z,76.30
2023-05-05T07:25:21.456Z,76.30
2023-05-05T07:27:48.309Z,74.10
2023-05-05T07:30:18.477Z,73.60
2023-05-05T07:32:45.924Z,73.20
2023-05-05T07:35:12.962Z,73.60
2023-05-05T07:37:39.756Z,72.60
2023-05-05T07:40:07.271Z,69.10
2023-05-05T07:42:34.218Z,69.80
2023-05-05T07:45:01.376Z,70.70
2023-05-05T07:47:28.325Z,70.30
2023-05-05T07:49:55.091Z,68.00
2023-05-05T07:52:33.113Z,67.20
2023-05-05T07:55:00.438Z,64.80
2023-05-05T07:57:27.234Z,64.40
2023-05-05T07:59:54.038Z,63.30
2023-05-05T08:02:22.052Z,62.70
2023-05-05T08:04:49.561Z,63.00
2023-05-05T08:07:16.494Z,59.00
2023-05-05T08:09:43.360Z,58.40
2023-05-05T08:12:12.247Z,58.80
2023-05-05T08:14:40.788Z,57.80
2023-05-05T08:17:08.465Z,60.70
2023-05-05T08:19:35.680Z,55.80
2023-05-05T08:22:03.311Z,58.60
2023-05-05T08:24:30.837Z,57.80
2023-05-05T08:26:57.651Z,57.70
2023-05-05T08:29:24.663Z,55.30
2023-05-05T08:31:51.962Z,54.50
2023-05-05T08:34:18.875Z,53.20
2023-05-05T08:36:45.992Z,53.40
2023-05-05T08:39:12.793Z,52.70
2023-05-05T08:41:39.685Z,53.10
2023-05-05T08:44:08.396Z,54.30
2023-05-05T08:46:36.261Z,51.70
2023-05-05T08:49:05.340Z,53.10
2023-05-05T08:51:41.138Z,53.10
2023-05-05T08:54:14.468Z,52.20
2023-05-05T08:56:42.126Z,53.50
2023-05-05T08:59:18.903Z,52.60
2023-05-05T09:01:53.050Z,56.60
2023-05-05T09:04:20.053Z,52.80
2023-05-05T09:06:46.856Z,52.40
2023-05-05T09:09:14.362Z,53.00
2023-05-05T09:11:41.965Z,52.60
2023-05-05T09:14:09.246Z,53.20
2023-05-05T09:16:36.235Z,49.80
2023-05-05T09:19:06.231Z,51.90
2023-05-05T09:21:33.121Z,48.60
2023-05-05T09:24:13.308Z,51.10
2023-05-05T09:26:42.910Z,51.40
2023-05-05T09:29:10.028Z,50.50
2023-05-05T09:31:37.751Z,48.90
2023-05-05T09:34:17.229Z,49.50
2023-05-05T09:36:50.046Z,48.70
2023-05-05T09:39:18.649Z,48.70
2023-05-05T09:41:45.843Z,48.00
2023-05-05T09:44:16.082Z,47.80
2023-05-05T09:46:55.084Z,48.00
2023-05-05T09:49:26.773Z,50.10
2023-05-05T09:51:54.839Z,47.70
2023-05-05T09:54:26.155Z,48.60
2023-05-05T09:56:53.493Z,47.70
2023-05-05T09:59:21.411Z,50.50
2023-05-05T10:01:49.301Z,52.50
2023-05-05T10:04:30.346Z,48.20
2023-05-05T10:06:58.657Z,47.90
2023-05-05T10:09:26.398Z,46.30
2023-05-05T10:11:53.871Z,47.10
2023-05-05T10:14:20.923Z,48.00
2023-05-05T10:16:55.513Z,49.50
2023-05-05T10:19:24.105Z,45.50
2023-05-05T10:21:54.119Z,47.00
2023-05-05T10:24:39.254Z,49.30
2023-05-05T10:27:17.081Z,50.40
2023-05-05T10:30:07.742Z,47.10
2023-05-05T10:35:22.323Z,47.90
2023-05-05T10:37:50.016Z,46.80
2023-05-05T10:40:20.022Z,50.50
2023-05-05T10:42:48.219Z,51.10
2023-05-05T10:45:15.417Z,49.60
2023-05-05T10:47:44.182Z,46.90
2023-05-05T10:50:28.832Z,48.90
2023-05-05T10:53:17.256Z,47.90
2023-05-05T10:55:50.922Z,46.60
2023-05-05T10:58:38.530Z,51.80
2023-05-05T11:01:10.826Z,49.10
2023-05-05T11:03:37.669Z,54.60
2023-05-05T11:06:04.536Z,51.10
2023-05-05T11:08:39.170Z,47.20
2023-05-05T11:11:06.811Z,48.60
2023-05-05T11:13:33.755Z,48.50
2023-05-05T11:16:02.183Z,52.60
2023-05-05T11:18:44.390Z,51.80
2023-05-05T11:21:18.136Z,45.20
2023-05-05T11:23:50.104Z,43.90
2023-05-05T11:26:18.864Z,50.70
2023-05-05T11:29:03.593Z,51.30
2023-05-05T11:31:31.745Z,47.00
2023-05-05T11:34:26.796Z,49.10
2023-05-05T11:37:01.062Z,46.70
2023-05-05T11:39:38.041Z,47.80
2023-05-05T11:42:27.107Z,44.80
2023-05-05T11:44:54.612Z,50.90
2023-05-05T11:47:21.831Z,48.50
2023-05-05T11:49:49.602Z,44.20
2023-05-05T11:52:16.373Z,45.30
2023-05-05T11:54:48.966Z,46.60
2023-05-05T11:57:20.875Z,44.90
2023-05-05T11:59:55.250Z,43.90
2023-05-05T12:02:24.071Z,42.50
2023-05-05T12:04:51.469Z,41.30
2023-05-05T12:07:20.192Z,43.20
2023-05-05T12:09:48.789Z,41.70
2023-05-05T12:12:16.778Z,41.60
2023-05-05T12:14:52.615Z,40.80
2023-05-05T12:17:21.100Z,45.50
2023-05-05T12:19:53.321Z,45.00
2023-05-05T12:22:24.054Z,49.00
2023-05-05T12:24:55.111Z,43.60
2023-05-05T12:27:22.416Z,41.90
2023-05-05T12:29:49.303Z,44.50
2023-05-05T12:32:24.055Z,42.30
2023-05-05T12:34:57.367Z,41.80
2023-05-05T12:37:26.771Z,42.30
2023-05-05T12:39:56.389Z,42.30
2023-05-05T12:42:23.812Z,37.60
2023-05-05T12:44:51.489Z,38.60
2023-05-05T12:47:32.430Z,35.60
2023-05-05T12:50:00.690Z,39.70
2023-05-05T12:52:45.904Z,38.50
2023-05-05T12:55:13.284Z,34.10
2023-05-05T12:58:00.790Z,34.00
2023-05-05T13:00:29.132Z,35.30
2023-05-05T13:02:56.778Z,35.10
2023-05-05T13:05:34.322Z,35.20
2023-05-05T13:08:02.048Z,35.00
2023-05-05T13:10:31.075Z,35.90
2023-05-05T13:12:58.480Z,36.60
2023-05-05T13:15:26.079Z,38.20
2023-05-05T13:18:00.243Z,38.60
2023-05-05T13:20:27.184Z,41.30
2023-05-05T13:22:54.380Z,43.40
2023-05-05T13:25:21.106Z,46.60
2023-05-05T13:27:47.840Z,46.90
2023-05-05T13:30:14.940Z,45.70
2023-05-05T13:32:42.172Z,46.30
2023-05-05T13:35:09.346Z,43.70
2023-05-05T13:37:36.265Z,43.80
2023-05-05T13:40:03.263Z,51.50
2023-05-05T13:42:30.316Z,50.20
2023-05-05T13:44:57.063Z,51.10
2023-05-05T13:47:24.967Z,51.50
2023-05-05T13:49:51.823Z,48.10
2023-05-05T13:52:18.575Z,47.10
2023-05-05T13:54:45.384Z,48.50
2023-05-05T13:57:12.414Z,50.70
2023-05-05T13:59:39.194Z,54.30
2023-05-05T14:02:06.315Z,59.70
2023-05-05T14:04:33.226Z,51.30
2023-05-05T14:07:01.950Z,55.90
2023-05-05T14:09:29.048Z,55.90
2023-05-05T14:11:56.220Z,62.20
2023-05-05T14:14:22.950Z,61.50
2023-05-05T14:16:50.556Z,59.30
2023-05-05T14:19:17.664Z,59.40
2023-05-05T14:21:44.462Z,60.70
2023-05-05T14:24:11.633Z,62.70
2023-05-05T14:26:38.970Z,69.00
2023-05-05T14:29:05.740Z,69.20
2023-05-05T14:31:32.562Z,68.30
2023-05-05T14:33:59.364Z,67.00
2023-05-05T14:36:26.801Z,68.30
2023-05-05T14:38:53.626Z,68.20
2023-05-05T14:41:20.499Z,67.70
2023-05-05T14:43:47.290Z,69.80
2023-05-05T14:46:14.262Z,69.90
2023-05-05T14:48:41.125Z,69.70
2023-05-05T14:51:08.190Z,71.20
2023-05-05T14:53:35.031Z,72.80
2023-05-05T14:56:02.720Z,72.60
2023-05-05T14:58:29.663Z,71.30
2023-05-05T15:00:56.987Z,66.40
2023-05-05T15:03:23.858Z,65.90
2023-05-05T15:05:50.649Z,66.80
2023-05-05T15:08:19.197Z,69.70
2023-05-05T15:10:47.457Z,70.50
2023-05-05T15:13:17.107Z,69.40
2023-05-05T15:15:45.027Z,68.20
2023-05-05T15:18:12.055Z,70.40
2023-05-05T15:20:38.795Z,71.20
2023-05-05T15:23:05.977Z,71.60
2023-05-05T15:25:32.961Z,72.50
2023-05-05T15:28:00.818Z,72.50
2023-05-05T15:30:27.802Z,73.50
2023-05-05T15:32:54.611Z,73.70
2023-05-05T15:35:21.573Z,74.50
2023-05-05T15:37:48.330Z,74.30
2023-05-05T15:40:15.137Z,75.50
2023-05-05T15:42:41.893Z,75.00
2023-05-05T15:45:12.030Z,73.00
2023-05-05T15:47:38.950Z,71.30
2023-05-05T15:50:06.752Z,70.80
2023-05-05T15:52:34.081Z,69.90
2023-05-05T15:55:01.681Z,69.50
2023-05-05T15:57:29.256Z,69.10
2023-05-05T15:59:56.318Z,70.20
2023-05-05T16:02:23.370Z,70.50
2023-05-05T16:04:50.313Z,71.20
2023-05-05T16:07:17.204Z,71.20
2023-05-05T16:09:44.397Z,71.00
2023-05-05T16:12:11.539Z,69.50
2023-05-05T16:14:38.313Z,68.80
2023-05-05T16:17:05.406Z,67.70
2023-05-05T16:19:32.250Z,67.20
2023-05-05T16:21:59.295Z,67.60
2023-05-05T16:24:26.263Z,67.60
2023-05-05T16:26:53.032Z,67.30
2023-05-05T16:29:19.824Z,67.90
2023-05-05T16:31:47.077Z,67.60
2023-05-05T16:34:14.595Z,67.30
2023-05-05T16:36:42.473Z,67.20
2023-05-05T16:39:10.998Z,67.90
2023-05-05T16:41:39.230Z,71.10
2023-05-05T16:44:06.940Z,75.00
2023-05-05T16:46:37.280Z,75.90
2023-05-05T16:49:04.784Z,73.50
2023-05-05T16:51:31.686Z,76.10
2023-05-05T16:53:58.458Z,75.50
2023-05-05T16:56:25.298Z,73.90
2023-05-05T16:58:52.622Z,77.30
2023-05-05T17:01:19.424Z,76.70
2023-05-05T17:03:46.227Z,77.20
2023-05-05T17:06:13.060Z,78.60
2023-05-05T17:08:39.978Z,78.40
2023-05-05T17:11:06.801Z,79.90
2023-05-05T17:13:33.598Z,78.40
2023-05-05T17:16:00.437Z,79.00
2023-05-05T17:18:27.220Z,79.50
2023-05-05T17:20:54.750Z,77.40
2023-05-05T17:23:21.518Z,77.50
2023-05-05T17:25:48.281Z,78.10
2023-05-05T17:28:17.139Z,77.90
2023-05-05T17:30:44.065Z,78.90
2023-05-05T17:33:10.857Z,78.20
2023-05-05T17:35:38.082Z,78.40
2023-05-05T17:38:05.347Z,77.70
2023-05-05T17:40:32.113Z,77.80
2023-05-05T17:42:58.857Z,78.80
2023-05-05T17:45:26.067Z,78.30
2023-05-05T17:47:52.867Z,78.00
2023-05-05T17:50:19.661Z,79.20
2023-05-05T17:52:46.857Z,80.00
2023-05-05T17:55:13.960Z,81.00
2023-05-05T17:57:40.743Z,80.80
2023-05-05T18:00:08.996Z,80.80
2023-05-05T18:02:37.115Z,81.40
2023-05-05T18:05:04.575Z,81.40
2023-05-05T18:07:33.436Z,81.60
2023-05-05T18:10:00.285Z,81.70
2023-05-05T18:12:27.070Z,80.80
2023-05-05T18:14:53.832Z,81.10
2023-05-05T18:17:21.157Z,81.50
2023-05-05T18:19:49.270Z,82.00
2023-05-05T18:22:17.434Z,81.50
2023-05-05T18:24:44.286Z,82.10
2023-05-05T18:27:11.064Z,81.10
2023-05-05T18:29:39.641Z,80.90
2023-05-05T18:32:06.591Z,81.90
2023-05-05T18:34:33.663Z,81.90
2023-05-05T18:37:00.580Z,81.70
2023-05-05T18:39:28.057Z,82.60
2023-05-05T18:41:55.378Z,82.70
2023-05-05T18:44:22.139Z,83.20
2023-05-05T18:46:49.306Z,83.30
2023-05-05T18:49:16.315Z,83.60
2023-05-05T18:51:43.684Z,83.60
2023-05-05T18:54:10.529Z,83.60
2023-05-05T18:56:37.422Z,83.70
2023-05-05T18:59:04.861Z,84.50
2023-05-05T19:01:31.727Z,83.90
2023-05-05T19:03:58.758Z,83.90
2023-05-05T19:06:25.810Z,84.10
2023-05-05T19:08:52.816Z,84.30
2023-05-05T19:11:19.567Z,84.80
2023-05-05T19:13:46.612Z,85.50
2023-05-05T19:16:13.517Z,85.60
2023-05-05T19:18:40.413Z,86.10
2023-05-05T19:21:07.222Z,85.60
2023-05-05T19:23:35.945Z,85.50
2023-05-05T19:26:05.848Z,85.60
2023-05-05T19:28:33.041Z,85.90
2023-05-05T19:31:00.415Z,85.80
2023-05-05T19:33:27.278Z,86.10
2023-05-05T19:35:54.821Z,86.20
2023-05-05T19:38:21.638Z,86.30
2023-05-05T19:40:48.624Z,86.50
2023-05-05T19:43:15.433Z,86.90
2023-05-05T19:45:42.221Z,86.50
2023-05-05T19:48:09.135Z,85.50
2023-05-05T19:50:36.194Z,85.70
2023-05-05T19:53:03.792Z,86.00
2023-05-05T19:55:30.558Z,86.20
2023-05-05T19:57:57.336Z,86.40
2023-05-05T20:00:24.205Z,86.50
2023-05-05T20:02:51.039Z,87.00
2023-05-05T20:05:17.984Z,86.50
2023-05-05T20:07:46.767Z,86.70
2023-05-05T20:10:14.243Z,86.30
2023-05-05T20:12:47.549Z,85.90
2023-05-05T20:15:20.963Z,86.50
2023-05-05T20:17:48.236Z,87.30
2023-05-05T20:20:17.595Z,87.80
2023-05-05T20:22:45.413Z,88.30
2023-05-05T20:25:12.942Z,88.60
2023-05-05T20:27:39.706Z,88.70
2023-05-05T20:30:08.848Z,89.40
2023-05-05T20:32:36.561Z,89.30
2023-05-05T20:35:05.470Z,89.30
2023-05-05T20:37:32.299Z,89.70
2023-05-05T20:39:59.168Z,89.60
2023-05-05T20:42:27.592Z,90.00
2023-05-05T20:44:54.943Z,90.30
2023-05-05T20:47:21.712Z,90.10
2023-05-05T20:49:48.723Z,90.40
2023-05-05T20:52:15.675Z,90.10
2023-05-05T20:54:42.481Z,89.90
2023-05-05T20:57:09.254Z,91.00
2023-05-05T20:59:37.689Z,91.40
2023-05-05T21:02:04.873Z,92.20
2023-05-05T21:04:31.713Z,92.80
2023-05-05T21:06:58.798Z,93.50
2023-05-05T21:09:25.955Z,93.00
2023-05-05T21:11:53.226Z,92.50
2023-05-05T21:14:20.001Z,92.70
2023-05-05T21:16:48.152Z,92.50
2023-05-05T21:19:15.017Z,92.30
2023-05-05T21:21:42.068Z,92.40
2023-05-05T21:24:09.875Z,92.80
2023-05-05T21:26:37.258Z,92.90
2023-05-05T21:29:04.527Z,93.40
2023-05-05T21:31:31.277Z,93.90
2023-05-05T21:33:58.073Z,93.80
2023-05-05T21:36:24.911Z,94.00
2023-05-05T21:38:55.340Z,94.10
2023-05-05T21:41:23.212Z,94.20
2023-05-05T21:43:50.053Z,94.40
2023-05-05T21:46:17.706Z,94.50
2023-05-05T21:48:46.932Z,94.50
2023-05-05T21:51:13.704Z,94.60
2023-05-05T21:53:40.827Z,94.60
2023-05-05T21:56:08.541Z,94.60
2023-05-05T21:58:35.483Z,94.50
2023-05-05T22:01:02.467Z,94.70
2023-05-05T22:03:29.794Z,94.60
2023-05-05T22:05:56.905Z,94.90
2023-05-05T22:08:23.680Z,94.90
2023-05-05T22:10:50.843Z,94.80
2023-05-05T22:13:18.905Z,94.70
2023-05-05T22:15:47.618Z,94.40
2023-05-05T22:18:15.268Z,94.70
2023-05-05T22:20:42.193Z,94.70
2023-05-05T22:23:09.084Z,94.80
2023-05-05T22:25:36.057Z,94.70
2023-05-05T22:28:02.867Z,94.70
2023-05-05T22:30:29.686Z,94.90
2023-05-05T22:32:56.613Z,94.90
2023-05-05T22:35:23.724Z,94.60
2023-05-05T22:37:50.800Z,94.80
2023-05-05T22:40:17.727Z,94.80
2023-05-05T22:42:44.545Z,95.00
2023-05-05T22:45:12.015Z,95.20
2023-05-05T22:47:39.327Z,95.10
2023-05-05T22:50:07.728Z,95.30
2023-05-05T22:52:34.537Z,95.30
2023-05-05T22:55:01.701Z,95.30
2023-05-05T22:57:28.877Z,95.50
2023-05-05T22:59:56.622Z,95.60
2023-05-05T23:02:23.844Z,95.60
2023-05-05T23:04:52.536Z,95.60
2023-05-05T23:07:20.262Z,95.50
2023-05-05T23:09:47.538Z,95.50
2023-05-05T23:12:14.597Z,95.30
2023-05-05T23:14:41.874Z,95.30
2023-05-05T23:17:08.660Z,95.10
2023-05-05T23:19:36.022Z,95.00
2023-05-05T23:22:03.959Z,95.10
2023-05-05T23:24:31.016Z,95.30
2023-05-05T23:27:04.274Z,95.30
2023-05-05T23:29:32.103Z,95.30
2023-05-05T23:31:59.289Z,95.40
2023-05-05T23:34:26.361Z,95.70
2023-05-05T23:36:53.252Z,95.70
2023-05-05T23:39:20.007Z,95.50
2023-05-05T23:41:46.749Z,95.40
2023-05-05T23:44:13.557Z,95.30
2023-05-05T23:46:40.524Z,95.30
2023-05-05T23:49:07.615Z,95.40
2023-05-05T23:51:34.656Z,95.50
2023-05-05T23:54:01.446Z,95.60
2023-05-05T23:56:28.232Z,95.60
2023-05-05T23:58:55.005Z,95.40
